createdAt,value
2019-05-28T00:00:44.757Z,14.50
2019-05-28T00:03:13.373Z,14.50
2019-05-28T00:05:41.949Z,14.40
2019-05-28T00:08:10.425Z,14.30
2019-05-28T00:10:39.095Z,14.20
2019-05-28T00:13:07.689Z,14.20
2019-05-28T00:15:36.437Z,14.10
2019-05-28T00:18:04.940Z,13.90
2019-05-28T00:20:33.530Z,13.80
2019-05-28T00:23:02.042Z,13.80
2019-05-28T00:25:30.572Z,13.80
2019-05-28T00:27:59.058Z,13.70
2019-05-28T00:30:27.557Z,13.80
2019-05-28T00:32:56.151Z,13.80
2019-05-28T00:35:24.640Z,13.70
2019-05-28T00:37:53.201Z,13.80
2019-05-28T00:40:21.785Z,13.70
2019-05-28T00:42:50.366Z,13.80
2019-05-28T00:45:18.962Z,13.80
2019-05-28T00:47:47.481Z,13.90
2019-05-28T00:50:16.081Z,14.00
2019-05-28T00:52:44.669Z,14.00
2019-05-28T00:55:13.145Z,14.10
2019-05-28T00:57:44.979Z,14.10
2019-05-28T01:00:13.583Z,14.10
2019-05-28T01:02:42.115Z,14.20
2019-05-28T01:05:10.717Z,14.10
2019-05-28T01:07:39.241Z,14.10
2019-05-28T01:10:08.542Z,14.20
2019-05-28T01:12:37.082Z,14.20
2019-05-28T01:15:07.846Z,14.20
2019-05-28T01:17:36.762Z,14.20
2019-05-28T01:20:06.772Z,14.20
2019-05-28T01:22:35.257Z,14.10
2019-05-28T01:25:05.469Z,14.10
2019-05-28T01:27:34.089Z,14.10
2019-05-28T01:30:02.747Z,14.10
2019-05-28T01:32:31.277Z,14.10
2019-05-28T01:34:59.784Z,14.10
2019-05-28T01:37:28.360Z,14.10
2019-05-28T01:39:56.883Z,14.10
2019-05-28T01:42:25.373Z,14.10
2019-05-28T01:44:53.877Z,14.10
2019-05-28T01:47:22.393Z,14.10
2019-05-28T01:49:51.055Z,14.00
2019-05-28T01:52:19.548Z,14.10
2019-05-28T01:54:48.097Z,14.00
2019-05-28T01:57:16.572Z,14.00
2019-05-28T01:59:45.248Z,14.00
2019-05-28T02:02:13.739Z,14.00
2019-05-28T02:04:42.377Z,13.90
2019-05-28T02:07:11.098Z,13.90
2019-05-28T02:09:39.646Z,13.90
2019-05-28T02:12:08.245Z,13.90
2019-05-28T02:14:36.716Z,13.90
2019-05-28T02:17:05.188Z,13.90
2019-05-28T02:19:33.780Z,13.90
2019-05-28T02:22:02.255Z,14.00
2019-05-28T02:24:30.748Z,13.90
2019-05-28T02:26:59.255Z,14.00
2019-05-28T02:29:27.740Z,14.00
2019-05-28T02:31:56.277Z,14.00
2019-05-28T02:34:24.762Z,14.00
2019-05-28T02:36:53.248Z,14.00
2019-05-28T02:39:21.858Z,14.00
2019-05-28T02:41:50.350Z,14.00
2019-05-28T02:44:18.841Z,14.00
2019-05-28T02:46:47.427Z,14.00
2019-05-28T02:49:15.902Z,14.00
2019-05-28T02:51:44.425Z,14.00
2019-05-28T02:54:12.913Z,13.90
2019-05-28T02:56:41.705Z,13.90
2019-05-28T02:59:12.023Z,13.80
2019-05-28T03:01:44.368Z,13.80
2019-05-28T03:04:10.909Z,13.80
2019-05-28T03:06:39.482Z,13.70
2019-05-28T03:09:08.208Z,13.70
2019-05-28T03:11:36.741Z,13.60
2019-05-28T03:14:05.290Z,13.50
2019-05-28T03:16:34.387Z,13.50
2019-05-28T03:19:02.881Z,13.40
2019-05-28T03:21:31.609Z,13.40
2019-05-28T03:24:00.216Z,13.40
2019-05-28T03:26:28.752Z,13.40
2019-05-28T03:28:57.277Z,13.40
2019-05-28T03:31:25.758Z,13.40
2019-05-28T03:33:54.310Z,13.40
2019-05-28T03:36:22.798Z,13.50
2019-05-28T03:38:51.573Z,13.40
2019-05-28T03:41:20.107Z,13.40
2019-05-28T03:43:48.638Z,13.40
2019-05-28T03:46:17.232Z,13.40
2019-05-28T03:48:45.724Z,13.40
2019-05-28T03:51:14.232Z,13.40
2019-05-28T03:53:42.737Z,13.40
2019-05-28T03:56:11.267Z,13.40
2019-05-28T03:58:39.877Z,13.30
2019-05-28T04:01:08.435Z,13.40
2019-05-28T04:03:36.912Z,13.40
2019-05-28T04:06:05.436Z,13.50
2019-05-28T04:08:33.917Z,13.40
2019-05-28T04:11:02.412Z,13.40
2019-05-28T04:13:31.005Z,13.40
2019-05-28T04:15:59.554Z,13.30
2019-05-28T04:18:28.232Z,13.30
2019-05-28T04:20:56.703Z,13.30
2019-05-28T04:23:25.193Z,13.30
2019-05-28T04:25:53.688Z,13.30
2019-05-28T04:28:22.250Z,13.20
2019-05-28T04:30:50.767Z,13.20
2019-05-28T04:33:19.309Z,13.10
2019-05-28T04:35:47.821Z,13.00
2019-05-28T04:38:16.505Z,13.00
2019-05-28T04:40:45.010Z,12.90
2019-05-28T04:43:13.605Z,12.70
2019-05-28T04:45:42.197Z,12.60
2019-05-28T04:48:10.801Z,12.50
2019-05-28T04:50:39.359Z,12.30
2019-05-28T04:53:08.048Z,12.10
2019-05-28T05:03:44.340Z,11.70
2019-05-28T05:09:22.007Z,11.60
2019-05-28T05:11:50.600Z,11.50
2019-05-28T05:14:19.420Z,11.50
2019-05-28T05:16:48.082Z,11.60
2019-05-28T05:19:19.692Z,11.60
2019-05-28T05:21:48.672Z,11.70
2019-05-28T05:24:17.345Z,11.80
2019-05-28T05:26:45.959Z,11.70
2019-05-28T05:29:15.180Z,11.70
2019-05-28T05:31:44.087Z,11.70
2019-05-28T05:34:16.365Z,11.60
2019-05-28T05:40:19.466Z,11.60
2019-05-28T05:42:48.255Z,11.70
2019-05-28T05:45:16.892Z,11.80
2019-05-28T05:50:20.879Z,11.90
2019-05-28T05:52:49.521Z,12.00
2019-05-28T05:55:18.286Z,12.10
2019-05-28T05:57:46.991Z,12.10
2019-05-28T06:00:15.625Z,12.10
2019-05-28T06:02:44.348Z,12.20
2019-05-28T06:05:13.464Z,12.20
2019-05-28T06:07:42.068Z,12.30
2019-05-28T06:10:10.688Z,12.30
2019-05-28T06:12:43.893Z,12.40
2019-05-28T06:15:12.460Z,12.50
2019-05-28T06:17:41.054Z,12.60
2019-05-28T06:20:09.629Z,12.70
2019-05-28T06:22:38.523Z,12.70
2019-05-28T06:25:09.070Z,12.80
2019-05-28T06:27:37.638Z,12.90
2019-05-28T06:30:07.724Z,12.90
2019-05-28T06:32:37.569Z,13.00
2019-05-28T06:35:07.150Z,13.10
2019-05-28T06:37:35.800Z,13.20
2019-05-28T06:40:06.449Z,13.30
2019-05-28T06:42:39.362Z,13.40
2019-05-28T06:45:07.426Z,13.50
2019-05-28T06:47:36.231Z,13.60
2019-05-28T06:50:08.122Z,13.70
2019-05-28T06:52:36.943Z,13.80
2019-05-28T06:55:05.680Z,13.80
2019-05-28T07:00:31.246Z,13.90
2019-05-28T07:03:06.265Z,14.00
2019-05-28T07:06:08.541Z,14.10
2019-05-28T07:48:05.046Z,14.20
2019-05-28T09:06:40.395Z,15.10
2019-05-28T09:20:20.040Z,15.50
2019-05-28T09:40:20.446Z,16.00
2019-05-28T09:48:21.765Z,15.70
2019-05-28T09:50:51.970Z,15.50
2019-05-28T10:02:04.228Z,15.00
2019-05-28T10:04:57.486Z,15.10
2019-05-28T10:10:30.784Z,15.10
2019-05-28T10:15:55.993Z,15.30
2019-05-28T10:18:32.236Z,15.30
2019-05-28T11:10:40.990Z,17.60
2019-05-28T11:13:12.642Z,17.60
2019-05-28T11:29:06.986Z,18.00
2019-05-28T11:34:38.993Z,18.30
2019-05-28T11:37:09.934Z,18.10
2019-05-28T11:45:18.628Z,18.10
2019-05-28T11:47:50.644Z,18.30
2019-05-28T11:58:34.077Z,18.10
2019-05-28T12:01:02.996Z,18.00
2019-05-28T12:03:32.492Z,18.20
2019-05-28T12:06:03.972Z,18.50
2019-05-28T12:08:32.857Z,18.60
2019-05-28T12:13:57.398Z,18.90
2019-05-28T12:16:26.058Z,18.80
2019-05-28T12:19:14.440Z,18.60
2019-05-28T12:21:47.601Z,18.50
2019-05-28T12:27:12.996Z,18.70
2019-05-28T12:38:06.138Z,19.10
2019-05-28T12:43:10.778Z,19.10
2019-05-28T12:45:39.459Z,18.90
2019-05-28T12:48:12.576Z,18.70
2019-05-28T12:50:38.502Z,18.70
2019-05-28T12:53:51.598Z,19.00
2019-05-28T12:56:22.634Z,19.10
2019-05-28T13:01:35.426Z,19.40
2019-05-28T13:04:06.310Z,19.70
2019-05-28T13:06:34.986Z,20.00
2019-05-28T13:09:06.826Z,20.40
2019-05-28T13:14:17.577Z,20.30
2019-05-28T13:16:48.498Z,20.20
2019-05-28T14:08:02.543Z,20.70
2019-05-28T14:10:31.444Z,21.30
2019-05-28T14:13:00.188Z,21.80
2019-05-28T14:15:28.818Z,22.40
2019-05-28T14:17:57.814Z,22.80
2019-05-28T14:20:26.384Z,22.30
2019-05-28T14:22:55.231Z,22.00
2019-05-28T14:25:23.819Z,21.60
2019-05-28T14:27:52.425Z,21.80
2019-05-28T14:30:21.032Z,22.20
2019-05-28T14:32:49.674Z,23.10
2019-05-28T14:35:18.435Z,23.70
2019-05-28T14:37:47.087Z,24.00
2019-05-28T14:40:15.679Z,23.50
2019-05-28T14:42:44.311Z,22.90
2019-05-28T14:45:12.894Z,22.30
2019-05-28T14:47:41.479Z,21.80
2019-05-28T14:50:10.238Z,21.70
2019-05-28T14:52:38.824Z,21.60
2019-05-28T14:55:10.586Z,22.30
2019-05-28T14:57:39.338Z,22.60
2019-05-28T15:00:09.859Z,22.60
2019-05-28T15:02:38.416Z,22.20
2019-05-28T15:05:07.873Z,21.90
2019-05-28T15:07:36.432Z,21.90
2019-05-28T15:10:08.219Z,21.90
2019-05-28T15:12:36.805Z,21.40
2019-05-28T15:15:07.010Z,21.00
2019-05-28T15:17:35.625Z,20.30
2019-05-28T15:20:06.153Z,20.10
2019-05-28T15:22:34.746Z,20.80
2019-05-28T15:25:05.028Z,21.90
2019-05-28T15:27:33.609Z,21.50
2019-05-28T15:30:02.500Z,20.90
2019-05-28T15:32:31.066Z,20.30
2019-05-28T15:34:59.676Z,19.80
2019-05-28T15:37:28.263Z,19.40
2019-05-28T15:39:56.867Z,19.20
2019-05-28T15:42:25.464Z,18.90
2019-05-28T15:44:53.987Z,18.60
2019-05-28T15:47:22.702Z,18.40
2019-05-28T15:49:51.205Z,18.20
2019-05-28T15:52:19.785Z,18.20
2019-05-28T15:54:48.691Z,18.10
2019-05-28T15:57:17.888Z,18.00
2019-05-28T15:59:46.452Z,19.30
2019-05-28T16:02:14.988Z,21.60
2019-05-28T16:04:43.913Z,22.20
2019-05-28T16:07:12.764Z,21.50
2019-05-28T16:09:55.147Z,20.70
2019-05-28T16:12:11.857Z,20.00
2019-05-28T16:14:40.472Z,19.50
2019-05-28T16:17:09.023Z,19.10
2019-05-28T16:19:37.549Z,18.90
2019-05-28T16:22:06.103Z,18.80
2019-05-28T16:24:34.672Z,19.00
2019-05-28T16:27:03.264Z,19.80
2019-05-28T16:29:31.813Z,20.20
2019-05-28T16:32:00.542Z,20.10
2019-05-28T16:34:29.213Z,20.00
2019-05-28T16:36:57.781Z,20.60
2019-05-28T16:39:26.435Z,20.90
2019-05-28T16:41:55.101Z,20.30
2019-05-28T16:44:23.601Z,19.70
2019-05-28T16:47:14.357Z,19.20
2019-05-28T16:49:22.633Z,19.10
2019-05-28T16:51:51.275Z,20.00
2019-05-28T16:54:19.902Z,20.00
2019-05-28T16:56:48.534Z,19.60
2019-05-28T17:01:45.097Z,18.70
2019-05-28T17:04:13.717Z,18.40
2019-05-28T17:06:42.346Z,18.20
2019-05-28T17:09:11.123Z,17.90
2019-05-28T17:11:39.778Z,17.80
2019-05-28T17:14:08.413Z,17.60
2019-05-28T17:16:37.141Z,17.50
2019-05-28T17:19:08.644Z,17.50
2019-05-28T17:21:38.884Z,17.30
2019-05-28T17:24:07.480Z,17.30
2019-05-28T17:26:36.097Z,17.20
2019-05-28T17:29:04.731Z,17.20
2019-05-28T17:31:33.349Z,17.10
2019-05-28T17:34:02.015Z,17.00
2019-05-28T17:36:30.568Z,16.90
2019-05-28T17:38:59.150Z,16.80
2019-05-28T17:41:27.660Z,16.70
2019-05-28T17:43:56.332Z,16.50
2019-05-28T17:46:24.903Z,16.40
2019-05-28T17:48:53.580Z,16.30
2019-05-28T17:51:22.180Z,16.20
2019-05-28T17:53:50.833Z,16.10
2019-05-28T17:56:19.553Z,16.00
2019-05-28T17:58:48.187Z,16.00
2019-05-28T18:01:16.860Z,15.90
2019-05-28T18:03:45.445Z,15.90
2019-05-28T18:06:14.152Z,15.80
2019-05-28T18:08:42.788Z,15.80
2019-05-28T18:11:11.452Z,15.70
2019-05-28T18:13:40.147Z,15.70
2019-05-28T18:16:08.777Z,15.60
2019-05-28T18:18:37.307Z,15.50
2019-05-28T18:21:07.533Z,15.50
2019-05-28T18:23:36.051Z,15.40
2019-05-28T18:26:04.666Z,15.30
2019-05-28T18:28:33.273Z,15.30
2019-05-28T18:31:01.962Z,15.20
2019-05-28T18:33:31.348Z,15.10
2019-05-28T18:36:00.244Z,15.00
2019-05-28T18:38:28.971Z,14.90
2019-05-28T18:40:57.603Z,14.90
2019-05-28T18:43:26.339Z,14.80
2019-05-28T18:45:55.003Z,14.70
2019-05-28T18:48:23.837Z,14.70
2019-05-28T18:50:52.701Z,14.60
2019-05-28T18:53:21.278Z,14.50
2019-05-28T18:55:49.861Z,14.50
2019-05-28T18:58:18.547Z,14.50
2019-05-28T19:00:47.324Z,14.40
2019-05-28T19:03:15.882Z,14.30
2019-05-28T19:05:44.489Z,14.30
2019-05-28T19:08:13.056Z,14.20
2019-05-28T19:10:41.785Z,14.20
2019-05-28T19:13:10.899Z,14.10
2019-05-28T19:15:39.555Z,14.00
2019-05-28T19:18:08.196Z,14.00
2019-05-28T19:20:36.817Z,13.90
2019-05-28T19:23:05.824Z,13.90
2019-05-28T19:25:34.467Z,13.90
2019-05-28T19:28:03.166Z,13.80
2019-05-28T19:30:36.747Z,13.80
2019-05-28T19:33:06.026Z,13.70
2019-05-28T19:35:34.707Z,13.60
2019-05-28T19:38:03.281Z,13.50
2019-05-28T19:40:40.908Z,13.50
2019-05-28T19:43:09.443Z,13.40
2019-05-28T19:45:38.066Z,13.30
2019-05-28T19:48:06.765Z,13.30
2019-05-28T19:50:35.745Z,13.20
2019-05-28T19:53:04.620Z,13.20
2019-05-28T19:55:33.422Z,13.10
2019-05-28T19:58:02.086Z,13.10
2019-05-28T20:00:30.731Z,13.00
2019-05-28T20:02:59.508Z,13.00
2019-05-28T20:05:28.851Z,12.90
2019-05-28T20:07:57.519Z,12.90
2019-05-28T20:10:26.231Z,12.80
2019-05-28T20:12:55.141Z,12.80
2019-05-28T20:15:24.521Z,12.70
2019-05-28T20:17:54.604Z,12.70
2019-05-28T20:20:23.420Z,12.70
2019-05-28T20:22:52.118Z,12.60
2019-05-28T20:25:20.694Z,12.50
2019-05-28T20:27:49.666Z,12.50
2019-05-28T20:30:18.362Z,12.50
2019-05-28T20:33:03.241Z,12.40
2019-05-28T20:35:39.815Z,12.40
2019-05-28T20:38:12.623Z,12.30
2019-05-28T20:40:53.777Z,12.30
2019-05-28T20:43:27.276Z,12.30
2019-05-28T20:45:55.803Z,12.20
2019-05-28T20:48:29.336Z,12.20
2019-05-28T20:51:07.900Z,12.10
2019-05-28T20:53:36.032Z,12.10
2019-05-28T20:55:58.699Z,12.10
2019-05-28T20:58:39.346Z,12.00
2019-05-28T21:00:57.911Z,12.00
2019-05-28T21:03:26.683Z,12.00
2019-05-28T21:05:55.277Z,11.90
2019-05-28T21:08:23.929Z,11.90
2019-05-28T21:10:52.637Z,11.90
2019-05-28T21:13:21.306Z,11.80
2019-05-28T21:15:50.679Z,11.80
2019-05-28T21:18:19.258Z,11.80
2019-05-28T21:20:49.303Z,11.70
2019-05-28T21:23:18.168Z,11.80
2019-05-28T21:25:50.082Z,11.70
2019-05-28T21:28:18.769Z,11.70
2019-05-28T21:30:47.657Z,11.60
2019-05-28T21:33:19.430Z,11.60
2019-05-28T21:35:48.012Z,11.60
2019-05-28T21:38:19.571Z,11.60
2019-05-28T21:40:48.205Z,11.50
2019-05-28T21:43:17.657Z,11.50
2019-05-28T21:45:46.847Z,11.40
2019-05-28T21:48:15.914Z,11.40
2019-05-28T21:50:44.574Z,11.30
2019-05-28T21:53:13.101Z,11.30
2019-05-28T21:55:41.812Z,11.30
2019-05-28T21:58:10.529Z,11.20
2019-05-28T22:00:46.602Z,11.20
2019-05-28T22:03:15.408Z,11.20
2019-05-28T22:05:43.938Z,11.10
2019-05-28T22:08:12.618Z,11.10
2019-05-28T22:10:41.470Z,11.10
2019-05-28T22:13:20.391Z,11.10
2019-05-28T22:15:40.331Z,11.00
2019-05-28T22:18:08.865Z,11.10
2019-05-28T22:20:37.429Z,11.00
2019-05-28T22:23:06.041Z,11.00
2019-05-28T22:25:34.760Z,11.00
2019-05-28T22:28:03.363Z,11.00
2019-05-28T22:30:31.883Z,11.00
2019-05-28T22:33:02.201Z,11.00
2019-05-28T22:35:30.894Z,11.00
2019-05-28T22:37:59.473Z,11.00
2019-05-28T22:40:27.965Z,11.00
2019-05-28T22:42:56.518Z,10.90
2019-05-28T22:45:25.115Z,10.90
2019-05-28T22:47:53.782Z,10.80
2019-05-28T22:50:23.344Z,10.80
2019-05-28T22:52:52.059Z,10.80
2019-05-28T22:55:20.689Z,10.70
2019-05-28T22:57:49.268Z,10.60
2019-05-28T23:00:17.772Z,10.70
2019-05-28T23:02:46.333Z,10.70
2019-05-28T23:05:14.990Z,10.60
2019-05-28T23:07:43.624Z,10.60
2019-05-28T23:10:12.229Z,10.60
2019-05-28T23:12:40.740Z,10.60
2019-05-28T23:15:10.335Z,10.60
2019-05-28T23:17:39.039Z,10.60
2019-05-28T23:20:08.882Z,10.50
2019-05-28T23:22:37.564Z,10.60
2019-05-28T23:25:07.756Z,10.60
2019-05-28T23:27:36.318Z,10.60
2019-05-28T23:30:21.492Z,10.60
2019-05-28T23:32:38.518Z,10.50
2019-05-28T23:35:10.712Z,10.50
2019-05-28T23:37:39.452Z,10.50
2019-05-28T23:40:09.177Z,10.50
2019-05-28T23:42:37.999Z,10.40
2019-05-28T23:45:07.759Z,10.40
2019-05-28T23:47:36.463Z,10.40
2019-05-28T23:50:08.533Z,10.40
2019-05-28T23:52:38.278Z,10.30
2019-05-28T23:55:07.735Z,10.30
2019-05-28T23:57:36.408Z,10.20
